Urb Los Sauces, Puerto Rico
Current Conditions -  °F | °C
As of 11:38 AM on Thursday 30 Oct 2014 (Local Time) from TJNR Reporting Station
Heavy Rain Heavy Rain  
Wind Chill: 81°   Ceiling: 2100
Heat Index: 87°   Visibility: 0.75mi
Dew Point: 76°   Wind: 0mph
Humidity: 85%   Direction: NA
Pressure: 29.87"   Gusts: NA
Location:  18.1494°N, 65.8294°W
Report Text: TJNR 301538Z AUTO 00000KT 3/4SM +RA BKN021 BKN027 OVC036 27/24 A2987 RMK AO2 RAB10 P0009 T02720244 $
Loading
Personal Weather Stations






























Interactive Weather Map
Tropical Storm Tracking
New forecast layout! Learn more

10-Day Weather Forecast

Advertisements
Track Severe Weather on mobile